LEZL

Sevilla/San Pablo Airport

Airport
ICAO code
LEZL
IATA Code
SVQ
Summary
ICAO Region
EUR
ICAO Territory
Location

Sevilla, Andalusia

Serving
Sevilla
Elevation
112 ft
Coordinates
37° 25' 8" N , 5° 53' 54" W
KCC
Airport WX
Cumulonimbus
Metar
Observation
LEZL 302130Z 11007KT CAVOK 08/04 Q1028 NOSIG
Station
Sevilla / San Pablo
Date/Time
2023-01-30 21:30:00
Wind direction
110°
Wind speed
07 kts
Lowest cloud amount
clouds and visibility OK
Temperature
8°C
Dew point
4°C
Humidity
75%
QNH
1028 hPa
Weather condition
n/a

Seville/San Pablo Airport is the main airport for Seville and is Andalusia’s second airport, behind Málaga. Also known as San Pablo Airport, it is located 10 km northwest of Seville.

Climatology

Dry-summer subtropical ”Mediterranean" climate (Köppen climate classification Csa) - characterized by hot, dry summers and mild winters. During the summer, subtropical high pressure cells dominate, making rainfall unlikely except for the occasional thunderstorm. In the winter, periodic storms bring rain.

Runways

Designator Length Width Surface Rops
9/27 3360 45 ASP Yes/Yes

Airport map

Aerial View

SKYbrary Partners:

Safety knowledge contributed by: